createdAt,value
2017-05-21T00:00:56.382Z,13.85
2017-05-21T00:01:58.229Z,14.04
2017-05-21T00:03:00.065Z,13.95
2017-05-21T00:04:01.879Z,13.97
2017-05-21T00:05:03.968Z,13.97
2017-05-21T00:06:05.789Z,14.00
2017-05-21T00:07:07.626Z,13.99
2017-05-21T00:08:09.473Z,14.00
2017-05-21T00:09:23.570Z,13.99
2017-05-21T00:10:25.422Z,14.14
2017-05-21T00:11:27.269Z,14.06
2017-05-21T00:12:29.108Z,14.14
2017-05-21T00:13:30.923Z,14.03
2017-05-21T00:14:32.736Z,14.14
2017-05-21T00:15:34.596Z,14.04
2017-05-21T00:16:36.421Z,14.03
2017-05-21T00:17:38.257Z,13.97
2017-05-21T00:18:52.413Z,14.02
2017-05-21T00:19:54.250Z,13.96
2017-05-21T00:20:56.392Z,14.04
2017-05-21T00:21:58.212Z,14.04
2017-05-21T00:23:00.048Z,14.03
2017-05-21T00:24:01.871Z,13.92
2017-05-21T00:25:03.703Z,13.96
2017-05-21T00:26:05.570Z,13.84
2017-05-21T00:27:07.409Z,13.89
2017-05-21T00:28:21.512Z,13.78
2017-05-21T00:29:23.349Z,13.75
2017-05-21T00:30:25.191Z,13.81
2017-05-21T00:31:27.034Z,13.81
2017-05-21T00:32:28.873Z,13.79
2017-05-21T00:33:30.717Z,13.89
2017-05-21T00:34:32.555Z,13.87
2017-05-21T00:35:34.398Z,13.88
2017-05-21T00:36:36.439Z,13.95
2017-05-21T00:37:50.563Z,13.92
2017-05-21T00:38:52.408Z,13.92
2017-05-21T00:39:54.248Z,13.97
2017-05-21T00:40:56.093Z,13.95
2017-05-21T00:41:58.026Z,13.89
2017-05-21T00:42:59.845Z,13.97
2017-05-21T00:44:01.684Z,13.97
2017-05-21T00:45:03.503Z,13.88
2017-05-21T00:46:05.343Z,13.97
2017-05-21T00:47:19.493Z,13.89
2017-05-21T00:48:21.329Z,13.81
2017-05-21T00:49:23.172Z,13.82
2017-05-21T00:50:25.016Z,13.78
2017-05-21T00:51:26.852Z,13.88
2017-05-21T00:52:28.944Z,13.84
2017-05-21T00:53:30.781Z,13.82
2017-05-21T00:54:32.602Z,13.81
2017-05-21T00:55:34.444Z,13.85
2017-05-21T00:56:48.617Z,13.81
2017-05-21T00:57:50.452Z,13.69
2017-05-21T00:58:52.275Z,13.69
2017-05-21T00:59:54.111Z,13.70
2017-05-21T01:00:55.954Z,13.73
2017-05-21T01:01:57.785Z,13.63
2017-05-21T01:02:59.907Z,13.63
2017-05-21T01:04:01.745Z,13.59
2017-05-21T01:05:03.563Z,13.54
2017-05-21T01:06:17.737Z,13.54
2017-05-21T01:07:19.573Z,13.59
2017-05-21T01:08:21.491Z,13.57
2017-05-21T01:09:23.304Z,13.52
2017-05-21T01:10:25.124Z,13.51
2017-05-21T01:11:26.966Z,13.54
2017-05-21T01:12:28.803Z,13.48
2017-05-21T01:13:30.874Z,13.52
2017-05-21T01:14:32.716Z,13.48
2017-05-21T01:15:46.886Z,13.57
2017-05-21T01:16:48.727Z,13.48
2017-05-21T01:17:50.575Z,13.42
2017-05-21T01:18:52.715Z,13.45
2017-05-21T01:19:54.560Z,13.49
2017-05-21T01:20:56.395Z,13.38
2017-05-21T01:21:58.239Z,13.39
2017-05-21T01:23:00.074Z,13.38
2017-05-21T01:24:01.940Z,13.41
2017-05-21T01:25:16.086Z,13.33
2017-05-21T01:26:17.921Z,13.23
2017-05-21T01:27:19.780Z,13.41
2017-05-21T01:28:21.624Z,13.36
2017-05-21T01:29:23.564Z,13.28
2017-05-21T01:30:25.406Z,13.30
2017-05-21T01:31:27.247Z,13.22
2017-05-21T01:32:29.093Z,13.19
2017-05-21T01:33:30.909Z,13.30
2017-05-21T01:34:45.081Z,13.25
2017-05-21T01:35:46.922Z,13.29
2017-05-21T01:36:48.766Z,13.17
2017-05-21T01:37:50.602Z,13.20
2017-05-21T01:38:52.449Z,13.22
2017-05-21T01:39:54.315Z,13.14
2017-05-21T01:40:56.151Z,13.14
2017-05-21T01:41:57.966Z,13.12
2017-05-21T01:42:59.778Z,13.15
2017-05-21T01:44:13.927Z,13.12
2017-05-21T01:45:15.742Z,13.08
2017-05-21T01:46:17.552Z,12.97
2017-05-21T01:47:19.373Z,12.93
2017-05-21T01:48:21.210Z,12.83
2017-05-21T01:49:23.051Z,12.75
2017-05-21T01:50:24.968Z,12.74
2017-05-21T01:51:26.814Z,12.72
2017-05-21T01:52:28.653Z,12.67
2017-05-21T01:53:42.822Z,12.62
2017-05-21T01:54:44.640Z,12.53
2017-05-21T01:55:46.492Z,12.50
2017-05-21T01:56:48.322Z,12.56
2017-05-21T01:57:50.160Z,12.49
2017-05-21T01:58:51.999Z,12.60
2017-05-21T01:59:53.841Z,12.54
2017-05-21T02:00:55.685Z,12.53
2017-05-21T02:01:57.528Z,12.62
2017-05-21T02:03:11.699Z,12.70
2017-05-21T02:04:13.538Z,12.77
2017-05-21T02:05:15.354Z,12.74
2017-05-21T02:06:17.197Z,12.85
2017-05-21T02:07:19.011Z,12.87
2017-05-21T02:08:20.853Z,12.78
2017-05-21T02:09:22.689Z,12.77
2017-05-21T02:10:24.528Z,12.72
2017-05-21T02:11:26.720Z,12.65
2017-05-21T02:12:40.843Z,12.50
2017-05-21T02:13:42.658Z,12.37
2017-05-21T02:14:44.500Z,12.42
2017-05-21T02:15:46.340Z,12.32
2017-05-21T02:16:48.206Z,12.19
2017-05-21T02:17:50.045Z,12.23
2017-05-21T02:18:51.885Z,12.13
2017-05-21T02:19:53.730Z,12.07
2017-05-21T02:20:55.615Z,12.17
2017-05-21T02:22:09.944Z,12.12
2017-05-21T02:23:11.790Z,12.04
2017-05-21T02:24:13.626Z,12.04
2017-05-21T02:25:15.443Z,11.99
2017-05-21T02:26:17.256Z,12.10
2017-05-21T02:27:19.124Z,12.04
2017-05-21T02:28:20.969Z,12.10
2017-05-21T02:29:22.780Z,12.04
2017-05-21T02:30:24.617Z,11.99
2017-05-21T02:31:38.867Z,12.13
2017-05-21T02:32:40.712Z,12.05
2017-05-21T02:33:42.547Z,12.02
2017-05-21T02:34:44.391Z,12.01
2017-05-21T02:35:46.208Z,11.99
2017-05-21T02:36:48.052Z,11.95
2017-05-21T02:37:49.895Z,12.01
2017-05-21T02:38:51.739Z,11.90
2017-05-21T02:39:53.575Z,11.91
2017-05-21T02:41:07.725Z,11.94
2017-05-21T02:42:09.567Z,11.90
2017-05-21T02:43:11.415Z,12.01
2017-05-21T02:44:13.252Z,11.90
2017-05-21T02:45:15.074Z,11.94
2017-05-21T02:46:16.912Z,11.95
2017-05-21T02:47:18.731Z,11.90
2017-05-21T02:48:20.569Z,11.91
2017-05-21T02:49:22.408Z,12.05
2017-05-21T02:50:36.528Z,12.13
2017-05-21T02:51:38.350Z,12.13
2017-05-21T02:52:40.188Z,12.17
2017-05-21T02:53:42.308Z,12.10
2017-05-21T02:54:44.123Z,12.07
2017-05-21T02:55:45.941Z,12.13
2017-05-21T02:56:47.780Z,12.09
2017-05-21T02:57:49.595Z,12.28
2017-05-21T02:58:51.415Z,12.20
2017-05-21T03:00:05.539Z,12.21
2017-05-21T03:01:07.386Z,12.27
2017-05-21T03:02:09.235Z,12.28
2017-05-21T03:03:11.076Z,12.37
2017-05-21T03:04:13.324Z,12.21
2017-05-21T03:05:15.164Z,12.24
2017-05-21T03:06:17.003Z,12.37
2017-05-21T03:07:18.839Z,12.35
2017-05-21T03:08:20.661Z,12.41
2017-05-21T03:09:34.833Z,12.50
2017-05-21T03:10:36.651Z,12.35
2017-05-21T03:11:38.467Z,12.46
2017-05-21T03:12:40.313Z,12.42
2017-05-21T03:13:42.168Z,12.53
2017-05-21T03:14:44.092Z,12.53
2017-05-21T03:15:45.909Z,12.60
2017-05-21T03:16:47.751Z,12.56
2017-05-21T03:17:49.568Z,12.65
2017-05-21T03:19:03.738Z,12.72
2017-05-21T03:20:05.557Z,12.71
2017-05-21T03:21:07.378Z,12.71
2017-05-21T03:22:09.220Z,12.78
2017-05-21T03:23:11.066Z,12.87
2017-05-21T03:24:12.904Z,12.85
2017-05-21T03:25:15.051Z,12.90
2017-05-21T03:26:16.864Z,12.96
2017-05-21T03:27:18.714Z,12.92
2017-05-21T03:28:32.809Z,12.93
2017-05-21T03:29:34.627Z,12.87
2017-05-21T03:30:36.474Z,12.96
2017-05-21T03:31:38.320Z,12.95
2017-05-21T03:32:40.164Z,13.07
2017-05-21T03:33:41.987Z,13.00
2017-05-21T03:34:43.826Z,13.07
2017-05-21T03:35:46.074Z,13.10
2017-05-21T03:36:47.917Z,13.07
2017-05-21T03:38:02.093Z,13.20
2017-05-21T03:39:03.939Z,13.07
2017-05-21T03:40:05.783Z,13.12
2017-05-21T03:41:07.629Z,13.19
2017-05-21T03:42:09.469Z,13.19
2017-05-21T03:43:11.287Z,13.15
2017-05-21T03:44:13.114Z,13.19
2017-05-21T03:45:14.955Z,13.25
2017-05-21T03:46:17.021Z,13.25
2017-05-21T03:47:31.131Z,13.26
2017-05-21T03:48:32.972Z,13.26
2017-05-21T03:49:34.789Z,13.29
2017-05-21T03:50:36.616Z,13.23
2017-05-21T03:51:38.464Z,13.39
2017-05-21T03:52:40.313Z,13.36
2017-05-21T03:53:42.149Z,13.48
2017-05-21T03:54:43.971Z,13.46
2017-05-21T03:55:45.796Z,13.52
2017-05-21T03:57:00.430Z,13.64
2017-05-21T03:58:02.253Z,13.87
2017-05-21T03:59:04.097Z,14.04
2017-05-21T04:00:05.941Z,14.09
2017-05-21T04:01:07.763Z,14.20
2017-05-21T04:02:09.630Z,14.25
2017-05-21T04:03:11.481Z,14.40
2017-05-21T04:04:13.319Z,14.50
2017-05-21T04:05:15.141Z,14.68
2017-05-21T04:06:29.500Z,14.73
2017-05-21T04:07:31.347Z,14.75
2017-05-21T04:08:33.190Z,14.88
2017-05-21T04:09:35.038Z,15.02
2017-05-21T04:10:36.887Z,15.21
2017-05-21T04:11:38.730Z,15.51
2017-05-21T04:12:40.594Z,15.72
2017-05-21T04:13:42.425Z,15.97
2017-05-21T04:14:44.266Z,16.14
2017-05-21T04:15:58.453Z,16.46
2017-05-21T04:17:00.271Z,16.73
2017-05-21T04:18:02.547Z,16.89
2017-05-21T04:19:04.393Z,17.25
2017-05-21T04:20:06.219Z,17.38
2017-05-21T04:21:08.043Z,17.64
2017-05-21T04:22:09.865Z,17.96
2017-05-21T04:23:11.722Z,18.15
2017-05-21T04:24:13.569Z,18.44
2017-05-21T04:25:27.705Z,18.65
2017-05-21T04:26:29.552Z,18.84
2017-05-21T04:27:31.382Z,19.04
2017-05-21T04:28:33.636Z,19.22
2017-05-21T04:29:35.457Z,19.37
2017-05-21T04:30:37.308Z,19.62
2017-05-21T04:31:39.138Z,19.80
2017-05-21T04:32:40.996Z,19.84
2017-05-21T04:33:42.849Z,19.98
2017-05-21T04:34:57.035Z,20.21
2017-05-21T04:35:58.881Z,20.20
2017-05-21T04:37:00.738Z,20.36
2017-05-21T04:38:02.564Z,20.57
2017-05-21T04:39:04.817Z,20.52
2017-05-21T04:40:06.671Z,20.70
2017-05-21T04:41:08.533Z,20.82
2017-05-21T04:42:10.379Z,20.89
2017-05-21T04:43:12.203Z,21.07
2017-05-21T04:44:26.415Z,21.14
2017-05-21T04:45:28.271Z,21.01
2017-05-21T04:46:30.089Z,20.94
2017-05-21T04:47:31.923Z,20.84
2017-05-21T04:48:33.773Z,20.55
2017-05-21T04:49:35.829Z,20.42
2017-05-21T04:50:37.683Z,20.29
2017-05-21T04:51:39.542Z,20.33
2017-05-21T04:52:41.392Z,20.58
2017-05-21T04:53:55.506Z,20.55
2017-05-21T04:54:57.353Z,20.69
2017-05-21T04:55:59.185Z,20.80
2017-05-21T04:57:01.038Z,20.85
2017-05-21T04:58:02.869Z,20.85
2017-05-21T04:59:04.727Z,20.76
2017-05-21T05:00:06.917Z,20.67
2017-05-21T05:01:08.750Z,20.64
2017-05-21T05:02:10.608Z,20.58
2017-05-21T05:03:24.740Z,20.48
2017-05-21T05:04:26.574Z,20.31
2017-05-21T05:05:28.421Z,20.11
2017-05-21T05:06:30.273Z,20.06
2017-05-21T05:07:32.100Z,19.95
2017-05-21T05:08:33.954Z,19.83
2017-05-21T05:09:35.802Z,19.92
2017-05-21T05:10:37.679Z,19.86
2017-05-21T05:11:39.538Z,19.81
2017-05-21T05:12:53.675Z,19.58
2017-05-21T05:13:55.500Z,19.41
2017-05-21T05:14:57.333Z,19.36
2017-05-21T05:15:59.483Z,19.32
2017-05-21T05:17:01.338Z,19.06
2017-05-21T05:18:03.190Z,19.02
2017-05-21T05:19:05.015Z,18.88
2017-05-21T05:20:06.869Z,18.85
2017-05-21T05:21:08.817Z,18.76
2017-05-21T05:22:22.927Z,18.66
2017-05-21T05:23:24.780Z,18.62
2017-05-21T05:24:26.631Z,18.76
2017-05-21T05:25:28.482Z,18.69
2017-05-21T05:26:30.336Z,18.50
2017-05-21T05:27:32.189Z,18.33
2017-05-21T05:28:34.014Z,18.18
2017-05-21T05:29:35.866Z,17.93
2017-05-21T05:30:37.699Z,17.70
2017-05-21T05:31:51.877Z,17.62
2017-05-21T05:32:53.732Z,17.58
2017-05-21T05:33:55.616Z,17.52
2017-05-21T05:34:57.419Z,17.49
2017-05-21T05:35:59.280Z,17.46
2017-05-21T05:37:01.332Z,17.34
2017-05-21T05:38:03.151Z,17.16
2017-05-21T05:39:05.006Z,17.28
2017-05-21T05:40:06.860Z,17.04
2017-05-21T05:41:21.388Z,16.83
2017-05-21T05:42:23.220Z,16.71
2017-05-21T05:43:25.045Z,16.60
2017-05-21T05:44:26.881Z,16.53
2017-05-21T05:45:28.722Z,16.43
2017-05-21T05:46:30.577Z,16.45
2017-05-21T05:47:32.446Z,16.39
2017-05-21T05:48:34.276Z,16.48
2017-05-21T05:49:36.098Z,16.42
2017-05-21T05:50:50.259Z,16.35
2017-05-21T05:51:52.108Z,16.35
2017-05-21T05:52:54.137Z,16.28
2017-05-21T05:53:56.017Z,16.25
2017-05-21T05:54:57.929Z,16.21
2017-05-21T05:55:59.772Z,16.25
2017-05-21T05:57:01.628Z,16.20
2017-05-21T05:58:03.676Z,16.12
2017-05-21T05:59:05.502Z,16.08
2017-05-21T06:00:19.664Z,16.21
2017-05-21T06:01:21.491Z,16.24
2017-05-21T06:02:23.339Z,16.25
2017-05-21T06:03:25.290Z,16.27
2017-05-21T06:04:27.122Z,16.34
2017-05-21T06:05:28.946Z,16.43
2017-05-21T06:06:30.795Z,16.43
2017-05-21T06:07:32.624Z,16.66
2017-05-21T06:08:34.469Z,16.57
2017-05-21T06:09:48.608Z,16.58
2017-05-21T06:10:50.464Z,16.67
2017-05-21T06:11:52.310Z,16.64
2017-05-21T06:12:54.136Z,16.68
2017-05-21T06:13:56.094Z,16.63
2017-05-21T06:14:57.949Z,16.64
2017-05-21T06:15:59.767Z,16.67
2017-05-21T06:17:01.625Z,16.64
2017-05-21T06:18:03.464Z,16.58
2017-05-21T06:19:17.607Z,16.58
2017-05-21T06:20:19.432Z,16.58
2017-05-21T06:21:21.285Z,16.70
2017-05-21T06:22:23.141Z,16.63
2017-05-21T06:23:24.965Z,16.70
2017-05-21T06:24:26.839Z,16.63
2017-05-21T06:25:28.694Z,16.60
2017-05-21T06:26:30.547Z,16.66
2017-05-21T06:27:32.394Z,16.64
2017-05-21T06:28:46.579Z,16.82
2017-05-21T06:29:48.429Z,16.97
2017-05-21T06:30:50.254Z,17.08
2017-05-21T06:31:52.081Z,17.12
2017-05-21T06:32:53.936Z,17.01
2017-05-21T06:33:55.782Z,17.00
2017-05-21T06:34:57.661Z,16.88
2017-05-21T06:35:59.484Z,16.75
2017-05-21T06:37:01.345Z,16.88
2017-05-21T06:38:15.443Z,16.85
2017-05-21T06:39:17.292Z,16.85
2017-05-21T06:40:19.175Z,16.85
2017-05-21T06:41:21.021Z,16.76
2017-05-21T06:42:22.855Z,16.76
2017-05-21T06:43:24.687Z,16.81
2017-05-21T06:44:26.508Z,16.85
2017-05-21T06:45:28.504Z,16.97
2017-05-21T06:46:30.361Z,16.83
2017-05-21T06:47:44.488Z,16.73
2017-05-21T06:48:46.310Z,16.66
2017-05-21T06:49:48.138Z,16.78
2017-05-21T06:50:50.164Z,16.98
2017-05-21T06:51:51.994Z,16.94
2017-05-21T06:52:53.843Z,17.00
2017-05-21T06:53:55.667Z,17.08
2017-05-21T06:54:57.499Z,17.21
2017-05-21T06:55:59.548Z,17.07
2017-05-21T06:57:13.683Z,17.01
2017-05-21T06:58:15.532Z,17.07
2017-05-21T06:59:17.356Z,17.03
2017-05-21T07:00:19.188Z,17.00
2017-05-21T07:01:21.035Z,17.15
2017-05-21T07:02:22.866Z,17.25
2017-05-21T07:03:24.717Z,17.26
2017-05-21T07:04:26.566Z,17.18
2017-05-21T07:05:28.417Z,17.14
2017-05-21T07:06:42.872Z,17.12
2017-05-21T07:07:44.700Z,17.01
2017-05-21T07:08:46.524Z,17.01
2017-05-21T07:09:48.355Z,16.96
2017-05-21T07:10:50.210Z,16.94
2017-05-21T07:11:52.382Z,16.88
2017-05-21T07:12:54.233Z,16.79
2017-05-21T07:13:56.086Z,16.86
2017-05-21T07:14:57.939Z,16.98
2017-05-21T07:16:12.048Z,17.03
2017-05-21T07:17:13.900Z,17.04
2017-05-21T07:18:15.757Z,17.03
2017-05-21T07:19:17.605Z,16.98
2017-05-21T07:20:19.464Z,17.03
2017-05-21T07:21:21.283Z,17.07
2017-05-21T07:22:23.187Z,17.34
2017-05-21T07:23:25.011Z,17.38
2017-05-21T07:24:26.861Z,17.34
2017-05-21T07:25:41.014Z,17.44
2017-05-21T07:26:42.870Z,17.58
2017-05-21T07:27:44.727Z,17.63
2017-05-21T07:28:46.581Z,17.63
2017-05-21T07:29:48.398Z,17.66
2017-05-21T07:30:50.228Z,17.66
2017-05-21T07:31:52.074Z,17.64
2017-05-21T07:32:53.948Z,17.70
2017-05-21T07:33:55.773Z,17.63
2017-05-21T07:35:09.887Z,17.58
2017-05-21T07:36:11.737Z,17.59
2017-05-21T07:37:13.591Z,17.48
2017-05-21T07:38:15.440Z,17.46
2017-05-21T07:39:17.362Z,17.41
2017-05-21T07:40:19.171Z,17.44
2017-05-21T07:41:21.017Z,17.21
2017-05-21T07:42:22.846Z,17.19
2017-05-21T07:43:24.947Z,17.08
2017-05-21T07:44:39.136Z,17.07
2017-05-21T07:45:40.991Z,17.01
2017-05-21T07:46:42.839Z,17.07
2017-05-21T07:47:44.669Z,17.31
2017-05-21T07:48:46.517Z,17.36
2017-05-21T07:49:48.346Z,17.43
2017-05-21T07:50:50.202Z,17.43
2017-05-21T07:51:52.051Z,17.41
2017-05-21T07:52:53.905Z,17.37
2017-05-21T07:54:08.333Z,17.37
2017-05-21T07:55:10.180Z,17.37
2017-05-21T07:56:12.003Z,17.44
2017-05-21T07:57:13.829Z,17.46
2017-05-21T07:58:15.749Z,17.51
2017-05-21T07:59:17.839Z,17.37
2017-05-21T08:00:19.667Z,17.55
2017-05-21T08:01:21.515Z,17.55
2017-05-21T08:02:23.375Z,17.58
2017-05-21T08:03:37.793Z,17.36
2017-05-21T08:04:39.651Z,17.41
2017-05-21T08:05:41.495Z,17.38
2017-05-21T08:06:43.346Z,17.43
2017-05-21T08:07:45.202Z,17.22
2017-05-21T08:08:47.055Z,17.23
2017-05-21T08:09:48.958Z,17.26
2017-05-21T08:10:50.805Z,17.26
2017-05-21T08:11:52.626Z,17.26
2017-05-21T08:13:06.787Z,17.11
2017-05-21T08:14:08.608Z,17.03
2017-05-21T08:15:10.487Z,17.04
2017-05-21T08:16:12.454Z,17.11
2017-05-21T08:17:14.379Z,17.21
2017-05-21T08:18:16.232Z,17.30
2017-05-21T08:19:18.087Z,17.43
2017-05-21T08:20:20.035Z,17.38
2017-05-21T08:21:21.892Z,17.34
2017-05-21T08:22:36.026Z,17.23
2017-05-21T08:23:37.875Z,17.31
2017-05-21T08:24:39.699Z,17.26
2017-05-21T08:25:44.759Z,17.18
2017-05-21T08:26:46.614Z,17.22
2017-05-21T08:27:48.623Z,17.28
2017-05-21T08:28:50.454Z,17.37
2017-05-21T08:29:52.307Z,17.34
2017-05-21T08:30:54.346Z,17.43
2017-05-21T08:32:08.539Z,17.56
2017-05-21T08:33:10.362Z,17.63
2017-05-21T08:34:12.213Z,17.68
2017-05-21T08:35:14.066Z,17.63
2017-05-21T08:36:15.923Z,17.59
2017-05-21T08:37:17.780Z,17.58
2017-05-21T08:38:19.597Z,17.52
2017-05-21T08:39:21.451Z,17.52
2017-05-21T08:40:23.281Z,17.59
2017-05-21T08:41:37.413Z,17.59
2017-05-21T08:42:39.268Z,17.66
2017-05-21T08:43:41.203Z,17.68
2017-05-21T08:44:43.028Z,17.68
2017-05-21T08:45:44.855Z,17.70
2017-05-21T08:46:46.724Z,17.86
2017-05-21T08:47:48.585Z,17.92
2017-05-21T08:48:50.438Z,18.00
2017-05-21T08:49:52.305Z,17.77
2017-05-21T08:51:06.595Z,17.96
2017-05-21T08:52:08.487Z,17.97
2017-05-21T08:53:10.345Z,17.92
2017-05-21T08:54:12.196Z,18.02
2017-05-21T08:55:14.055Z,18.05
2017-05-21T08:56:15.906Z,18.05
2017-05-21T08:57:17.933Z,18.18
2017-05-21T08:58:19.763Z,18.14
2017-05-21T08:59:21.615Z,18.17
2017-05-21T09:00:35.796Z,18.14
2017-05-21T09:01:37.652Z,18.05
2017-05-21T09:02:40.184Z,18.02
2017-05-21T09:03:42.134Z,18.07
2017-05-21T09:04:44.024Z,18.03
2017-05-21T09:05:45.851Z,18.14
2017-05-21T09:06:47.687Z,18.21
2017-05-21T09:07:49.536Z,18.33
2017-05-21T09:08:51.357Z,18.39
2017-05-21T09:10:05.630Z,18.42
2017-05-21T09:11:07.470Z,18.45
2017-05-21T09:12:09.299Z,18.52
2017-05-21T09:13:11.254Z,18.44
2017-05-21T09:14:13.108Z,18.58
2017-05-21T09:15:14.930Z,18.50
2017-05-21T09:16:16.761Z,18.44
2017-05-21T09:17:18.622Z,18.45
2017-05-21T09:18:20.469Z,18.27
2017-05-21T09:19:34.626Z,18.23
2017-05-21T09:20:36.454Z,18.30
2017-05-21T09:21:38.306Z,18.29
2017-05-21T09:22:40.253Z,18.41
2017-05-21T09:23:42.191Z,18.55
2017-05-21T09:24:44.016Z,18.63
2017-05-21T09:25:45.859Z,18.62
2017-05-21T09:26:47.712Z,18.70
2017-05-21T09:27:49.543Z,18.75
2017-05-21T09:29:03.724Z,18.66
2017-05-21T09:30:05.571Z,18.63
2017-05-21T09:31:07.400Z,18.58
2017-05-21T09:32:09.234Z,18.54
2017-05-21T09:33:11.083Z,18.41
2017-05-21T09:34:13.284Z,18.50
2017-05-21T09:35:15.139Z,18.45
2017-05-21T09:36:17.044Z,18.52
2017-05-21T09:37:18.926Z,18.48
2017-05-21T09:38:33.372Z,18.55
2017-05-21T09:39:35.220Z,18.60
2017-05-21T09:40:37.075Z,18.63
2017-05-21T09:41:38.900Z,18.57
2017-05-21T09:42:40.765Z,18.72
2017-05-21T09:43:42.613Z,18.87
2017-05-21T09:44:44.488Z,18.92
2017-05-21T09:45:46.334Z,18.76
2017-05-21T09:46:48.166Z,18.84
2017-05-21T09:48:02.352Z,18.98
2017-05-21T09:49:04.206Z,19.11
2017-05-21T09:50:06.089Z,19.00
2017-05-21T09:51:07.941Z,19.13
2017-05-21T09:52:09.768Z,19.23
2017-05-21T09:53:11.618Z,19.46
2017-05-21T09:54:13.453Z,19.22
2017-05-21T09:55:15.503Z,19.26
2017-05-21T09:56:17.363Z,19.25
2017-05-21T09:57:31.492Z,19.32
2017-05-21T09:58:33.326Z,19.29
2017-05-21T09:59:35.178Z,19.28
2017-05-21T10:00:37.036Z,19.55
2017-05-21T10:01:38.887Z,19.50
2017-05-21T10:02:40.741Z,19.39
2017-05-21T10:03:42.591Z,19.14
2017-05-21T10:04:44.424Z,19.07
2017-05-21T10:05:46.299Z,18.98
2017-05-21T10:07:00.435Z,18.85
2017-05-21T10:08:02.370Z,18.92
2017-05-21T10:09:04.280Z,18.85
2017-05-21T10:10:06.130Z,18.78
2017-05-21T10:11:08.108Z,18.84
2017-05-21T10:12:09.960Z,18.88
2017-05-21T10:13:11.795Z,19.02
2017-05-21T10:14:13.644Z,19.19
2017-05-21T10:15:15.479Z,19.25
2017-05-21T10:16:29.655Z,19.28
2017-05-21T10:17:31.513Z,19.40
2017-05-21T10:18:33.363Z,19.44
2017-05-21T10:19:35.192Z,19.51
2017-05-21T10:20:37.052Z,19.39
2017-05-21T10:21:39.104Z,19.33
2017-05-21T10:22:40.931Z,19.16
2017-05-21T10:23:42.758Z,19.19
2017-05-21T10:24:44.609Z,19.10
2017-05-21T10:25:58.722Z,19.13
2017-05-21T10:27:00.547Z,19.07
2017-05-21T10:28:02.369Z,19.22
2017-05-21T10:29:04.227Z,19.22
2017-05-21T10:30:06.086Z,19.32
2017-05-21T10:31:07.937Z,19.29
2017-05-21T10:32:09.814Z,19.28
2017-05-21T10:33:11.643Z,19.39
2017-05-21T10:34:13.464Z,19.41
2017-05-21T10:35:27.608Z,19.37
2017-05-21T10:36:29.436Z,19.40
2017-05-21T10:37:31.387Z,19.68
2017-05-21T10:38:33.241Z,19.77
2017-05-21T10:39:35.087Z,19.74
2017-05-21T10:40:36.922Z,19.77
2017-05-21T10:41:38.777Z,19.78
2017-05-21T10:42:40.799Z,19.91
2017-05-21T10:43:42.653Z,19.76
2017-05-21T10:44:56.759Z,19.65
2017-05-21T10:45:58.590Z,19.62
2017-05-21T10:47:00.441Z,19.44
2017-05-21T10:48:02.368Z,19.23
2017-05-21T10:49:04.194Z,19.18
2017-05-21T10:50:06.051Z,19.14
2017-05-21T10:51:07.897Z,19.08
2017-05-21T10:52:09.725Z,19.07
2017-05-21T10:53:11.577Z,19.18
2017-05-21T10:54:25.714Z,19.26
2017-05-21T10:55:27.568Z,19.46
2017-05-21T10:56:29.423Z,19.36
2017-05-21T10:57:31.255Z,19.32
2017-05-21T10:58:33.138Z,19.40
2017-05-21T10:59:34.971Z,19.63
2017-05-21T11:00:36.821Z,19.77
2017-05-21T11:01:38.653Z,19.99
2017-05-21T11:02:40.508Z,19.96
2017-05-21T11:03:54.645Z,19.99
2017-05-21T11:04:56.504Z,20.10
2017-05-21T11:05:58.373Z,20.06
2017-05-21T11:07:00.405Z,20.06
2017-05-21T11:08:02.277Z,19.98
2017-05-21T11:09:04.133Z,19.98
2017-05-21T11:10:05.984Z,19.91
2017-05-21T11:11:07.834Z,19.68
2017-05-21T11:12:09.698Z,19.59
2017-05-21T11:13:23.795Z,19.51
2017-05-21T11:14:25.626Z,19.51
2017-05-21T11:15:27.486Z,19.46
2017-05-21T11:16:29.338Z,19.40
2017-05-21T11:17:31.168Z,19.50
2017-05-21T11:18:33.077Z,19.58
2017-05-21T11:19:34.910Z,19.78
2017-05-21T11:20:36.773Z,19.88
2017-05-21T11:21:38.690Z,19.88
2017-05-21T11:22:53.040Z,19.77
2017-05-21T11:23:54.916Z,19.65
2017-05-21T11:24:56.789Z,19.62
2017-05-21T11:25:58.673Z,19.59
2017-05-21T11:27:00.537Z,19.50
2017-05-21T11:28:02.403Z,19.58
2017-05-21T11:29:04.322Z,19.59
2017-05-21T11:30:06.310Z,19.71
2017-05-21T11:31:08.173Z,19.94
2017-05-21T11:32:22.317Z,20.02
2017-05-21T11:33:24.196Z,20.17
2017-05-21T11:34:26.046Z,20.38
2017-05-21T11:35:27.934Z,20.39
2017-05-21T11:36:29.804Z,20.35
2017-05-21T11:37:31.634Z,20.20
2017-05-21T11:38:33.509Z,20.24
2017-05-21T11:39:35.321Z,20.38
2017-05-21T11:40:37.443Z,20.59
2017-05-21T11:41:51.606Z,20.58
2017-05-21T11:42:53.458Z,20.61
2017-05-21T11:43:55.293Z,20.72
2017-05-21T11:44:57.226Z,20.59
2017-05-21T11:45:59.167Z,20.52
2017-05-21T11:47:01.020Z,20.39
2017-05-21T11:48:02.879Z,20.29
2017-05-21T11:49:04.767Z,20.26
2017-05-21T11:50:06.719Z,20.35
2017-05-21T11:51:20.898Z,20.20
2017-05-21T11:52:22.814Z,20.28
2017-05-21T11:53:24.680Z,20.33
2017-05-21T11:54:26.540Z,20.39
2017-05-21T11:55:28.396Z,20.48
2017-05-21T11:56:30.247Z,20.41
2017-05-21T11:57:32.229Z,20.48
2017-05-21T11:58:34.092Z,20.39
2017-05-21T11:59:35.945Z,20.38
2017-05-21T12:00:50.049Z,20.39
2017-05-21T12:01:51.904Z,20.52
2017-05-21T12:02:53.761Z,20.66
2017-05-21T12:03:55.614Z,20.61
2017-05-21T12:04:57.478Z,20.54
2017-05-21T12:05:59.340Z,20.73
2017-05-21T12:07:01.193Z,20.70
2017-05-21T12:08:03.047Z,20.82
2017-05-21T12:09:04.899Z,20.95
2017-05-21T12:10:19.033Z,20.99
2017-05-21T12:11:20.865Z,21.07
2017-05-21T12:12:22.894Z,20.98
2017-05-21T12:13:24.809Z,20.89
2017-05-21T12:14:26.645Z,20.94
2017-05-21T12:15:28.500Z,21.07
2017-05-21T12:16:30.360Z,21.01
2017-05-21T12:17:32.212Z,21.01
2017-05-21T12:18:34.042Z,21.01
2017-05-21T12:19:48.176Z,20.76
2017-05-21T12:20:50.008Z,20.59
2017-05-21T12:21:51.860Z,20.57
2017-05-21T12:22:53.720Z,20.61
2017-05-21T12:23:55.570Z,20.73
2017-05-21T12:24:57.396Z,20.69
2017-05-21T12:25:59.225Z,20.72
2017-05-21T12:27:01.081Z,20.85
2017-05-21T12:28:03.185Z,20.85
2017-05-21T12:29:17.345Z,21.12
2017-05-21T12:30:19.171Z,21.25
2017-05-21T12:31:21.034Z,21.32
2017-05-21T12:32:22.891Z,21.22
2017-05-21T12:33:24.738Z,20.98
2017-05-21T12:34:26.567Z,20.95
2017-05-21T12:35:28.420Z,20.89
2017-05-21T12:36:30.277Z,20.79
2017-05-21T12:37:32.133Z,20.72
2017-05-21T12:38:46.477Z,20.52
2017-05-21T12:39:48.329Z,20.54
2017-05-21T12:40:50.179Z,20.55
2017-05-21T12:41:52.012Z,20.69
2017-05-21T12:42:53.854Z,20.76
2017-05-21T12:43:55.740Z,21.04
2017-05-21T12:44:57.590Z,21.21
2017-05-21T12:45:59.442Z,21.25
2017-05-21T12:47:01.277Z,21.40
2017-05-21T12:48:15.442Z,21.47
2017-05-21T12:49:17.294Z,21.44
2017-05-21T12:50:19.125Z,21.40
2017-05-21T12:51:20.950Z,21.46
2017-05-21T12:52:22.779Z,21.34
2017-05-21T12:53:24.637Z,21.29
2017-05-21T12:54:26.592Z,21.14
2017-05-21T12:55:28.420Z,20.91
2017-05-21T12:56:30.250Z,20.92
2017-05-21T12:57:44.441Z,20.91
2017-05-21T12:58:46.290Z,20.80
2017-05-21T12:59:48.199Z,20.76
2017-05-21T13:00:50.052Z,20.84
2017-05-21T13:01:51.904Z,20.95
2017-05-21T13:02:53.739Z,21.04
2017-05-21T13:03:55.592Z,21.29
2017-05-21T13:04:57.449Z,21.37
2017-05-21T13:05:59.277Z,21.47
2017-05-21T13:07:13.417Z,21.59
2017-05-21T13:08:15.266Z,21.50
2017-05-21T13:09:17.101Z,21.53
2017-05-21T13:10:18.962Z,21.25
2017-05-21T13:11:20.811Z,21.01
2017-05-21T13:12:22.667Z,20.76
2017-05-21T13:13:24.487Z,20.80
2017-05-21T13:14:26.319Z,20.74
2017-05-21T13:15:28.421Z,20.85
2017-05-21T13:16:42.558Z,20.92
2017-05-21T13:17:44.411Z,20.89
2017-05-21T13:18:46.236Z,20.87
2017-05-21T13:19:48.070Z,20.88
2017-05-21T13:20:49.941Z,20.80
2017-05-21T13:21:51.772Z,20.57
2017-05-21T13:22:53.630Z,20.67
2017-05-21T13:23:55.477Z,20.70
2017-05-21T13:24:57.309Z,20.76
2017-05-21T13:26:11.466Z,20.61
2017-05-21T13:27:13.296Z,20.82
2017-05-21T13:28:15.151Z,20.95
2017-05-21T13:29:17.014Z,21.03
2017-05-21T13:30:18.844Z,21.09
2017-05-21T13:31:20.893Z,21.24
2017-05-21T13:32:22.745Z,21.25
2017-05-21T13:33:24.605Z,21.43
2017-05-21T13:34:26.463Z,21.56